sensor_id;sensor_type;location;lat;lon;timestamp;P1;durP1;ratioP1;P2;durP2;ratioP2
77722;SDS011;67811;42.656;23.394;2023-06-10T00:01:26;9.95;;;6.30;;
77722;SDS011;67811;42.656;23.394;2023-06-10T00:03:52;9.65;;;5.70;;
77722;SDS011;67811;42.656;23.394;2023-06-10T00:06:17;12.15;;;5.97;;
77722;SDS011;67811;42.656;23.394;2023-06-10T00:08:43;8.13;;;5.80;;
77722;SDS011;67811;42.656;23.394;2023-06-10T00:11:08;10.18;;;6.25;;
77722;SDS011;67811;42.656;23.394;2023-06-10T00:13:33;10.20;;;6.07;;
77722;SDS011;67811;42.656;23.394;2023-06-10T00:15:58;12.45;;;6.93;;
77722;SDS011;67811;42.656;23.394;2023-06-10T00:18:24;11.77;;;6.30;;
77722;SDS011;67811;42.656;23.394;2023-06-10T00:20:49;9.82;;;6.00;;
77722;SDS011;67811;42.656;23.394;2023-06-10T00:23:14;11.15;;;6.57;;
77722;SDS011;67811;42.656;23.394;2023-06-10T00:25:40;13.40;;;7.10;;
77722;SDS011;67811;42.656;23.394;2023-06-10T00:28:05;13.40;;;7.55;;
77722;SDS011;67811;42.656;23.394;2023-06-10T00:30:30;13.40;;;7.13;;
77722;SDS011;67811;42.656;23.394;2023-06-10T00:32:55;11.85;;;7.80;;
77722;SDS011;67811;42.656;23.394;2023-06-10T00:35:21;19.23;;;8.35;;
77722;SDS011;67811;42.656;23.394;2023-06-10T00:37:46;12.02;;;6.95;;
77722;SDS011;67811;42.656;23.394;2023-06-10T00:40:11;13.18;;;6.97;;
77722;SDS011;67811;42.656;23.394;2023-06-10T00:42:37;9.85;;;6.28;;
77722;SDS011;67811;42.656;23.394;2023-06-10T00:45:03;9.18;;;5.45;;
77722;SDS011;67811;42.656;23.394;2023-06-10T00:47:28;18.35;;;6.25;;
77722;SDS011;67811;42.656;23.394;2023-06-10T00:49:55;13.20;;;6.28;;
77722;SDS011;67811;42.656;23.394;2023-06-10T00:52:21;12.15;;;6.65;;
77722;SDS011;67811;42.656;23.394;2023-06-10T00:54:48;9.07;;;6.20;;
77722;SDS011;67811;42.656;23.394;2023-06-10T00:57:13;10.40;;;5.95;;
77722;SDS011;67811;42.656;23.394;2023-06-10T00:59:42;11.32;;;6.45;;
77722;SDS011;67811;42.656;23.394;2023-06-10T01:02:11;13.95;;;5.82;;
77722;SDS011;67811;42.656;23.394;2023-06-10T01:04:36;10.18;;;6.85;;
77722;SDS011;67811;42.656;23.394;2023-06-10T01:07:17;16.23;;;6.80;;
77722;SDS011;67811;42.656;23.394;2023-06-10T01:12:19;10.35;;;6.20;;
77722;SDS011;67811;42.656;23.394;2023-06-10T01:14:59;11.30;;;5.75;;
77722;SDS011;67811;42.656;23.394;2023-06-10T01:17:25;10.60;;;6.93;;
77722;SDS011;67811;42.656;23.394;2023-06-10T01:19:54;10.02;;;6.60;;
77722;SDS011;67811;42.656;23.394;2023-06-10T01:22:20;10.80;;;6.80;;
77722;SDS011;67811;42.656;23.394;2023-06-10T01:24:45;9.88;;;6.18;;
77722;SDS011;67811;42.656;23.394;2023-06-10T01:27:12;10.15;;;6.68;;
77722;SDS011;67811;42.656;23.394;2023-06-10T01:29:44;9.02;;;6.15;;
77722;SDS011;67811;42.656;23.394;2023-06-10T01:32:18;9.27;;;6.20;;
77722;SDS011;67811;42.656;23.394;2023-06-10T01:34:51;13.65;;;6.20;;
77722;SDS011;67811;42.656;23.394;2023-06-10T01:37:17;13.05;;;7.60;;
77722;SDS011;67811;42.656;23.394;2023-06-10T01:39:46;21.77;;;9.85;;
77722;SDS011;67811;42.656;23.394;2023-06-10T01:42:13;15.77;;;8.90;;
77722;SDS011;67811;42.656;23.394;2023-06-10T01:44:39;16.40;;;8.98;;
77722;SDS011;67811;42.656;23.394;2023-06-10T01:47:04;17.25;;;9.10;;
77722;SDS011;67811;42.656;23.394;2023-06-10T01:49:30;15.57;;;9.82;;
77722;SDS011;67811;42.656;23.394;2023-06-10T01:51:55;15.68;;;9.57;;
77722;SDS011;67811;42.656;23.394;2023-06-10T01:54:21;15.70;;;8.70;;
77722;SDS011;67811;42.656;23.394;2023-06-10T01:56:46;13.70;;;9.00;;
77722;SDS011;67811;42.656;23.394;2023-06-10T01:59:11;13.77;;;8.32;;
77722;SDS011;67811;42.656;23.394;2023-06-10T02:01:36;17.23;;;9.27;;
77722;SDS011;67811;42.656;23.394;2023-06-10T02:04:02;13.07;;;7.93;;
77722;SDS011;67811;42.656;23.394;2023-06-10T02:06:27;14.52;;;9.05;;
77722;SDS011;67811;42.656;23.394;2023-06-10T02:08:52;14.25;;;8.07;;
77722;SDS011;67811;42.656;23.394;2023-06-10T02:11:18;16.77;;;9.60;;
77722;SDS011;67811;42.656;23.394;2023-06-10T02:13:43;14.23;;;8.88;;
77722;SDS011;67811;42.656;23.394;2023-06-10T02:16:08;15.25;;;8.10;;
77722;SDS011;67811;42.656;23.394;2023-06-10T02:18:34;16.60;;;8.65;;
77722;SDS011;67811;42.656;23.394;2023-06-10T02:20:59;16.00;;;9.55;;
77722;SDS011;67811;42.656;23.394;2023-06-10T02:23:24;14.30;;;9.10;;
77722;SDS011;67811;42.656;23.394;2023-06-10T02:25:49;21.08;;;9.43;;
77722;SDS011;67811;42.656;23.394;2023-06-10T02:28:15;17.92;;;10.05;;
77722;SDS011;67811;42.656;23.394;2023-06-10T02:30:41;15.35;;;8.40;;
77722;SDS011;67811;42.656;23.394;2023-06-10T02:33:07;19.73;;;11.07;;
77722;SDS011;67811;42.656;23.394;2023-06-10T02:35:33;17.83;;;9.48;;
77722;SDS011;67811;42.656;23.394;2023-06-10T02:37:59;21.60;;;11.98;;
77722;SDS011;67811;42.656;23.394;2023-06-10T02:40:24;21.30;;;9.95;;
77722;SDS011;67811;42.656;23.394;2023-06-10T02:42:49;17.63;;;10.57;;
77722;SDS011;67811;42.656;23.394;2023-06-10T02:45:14;20.20;;;10.18;;
77722;SDS011;67811;42.656;23.394;2023-06-10T02:47:41;16.13;;;9.82;;
77722;SDS011;67811;42.656;23.394;2023-06-10T02:50:06;18.08;;;11.02;;
77722;SDS011;67811;42.656;23.394;2023-06-10T02:52:32;16.50;;;9.10;;
77722;SDS011;67811;42.656;23.394;2023-06-10T02:54:57;17.92;;;10.00;;
77722;SDS011;67811;42.656;23.394;2023-06-10T02:57:22;20.00;;;9.93;;
77722;SDS011;67811;42.656;23.394;2023-06-10T02:59:47;17.83;;;9.88;;
77722;SDS011;67811;42.656;23.394;2023-06-10T03:02:13;14.65;;;10.05;;
77722;SDS011;67811;42.656;23.394;2023-06-10T03:04:38;18.42;;;10.15;;
77722;SDS011;67811;42.656;23.394;2023-06-10T03:07:03;16.83;;;9.23;;
77722;SDS011;67811;42.656;23.394;2023-06-10T03:09:29;13.88;;;9.20;;
77722;SDS011;67811;42.656;23.394;2023-06-10T03:11:54;8.98;;;6.07;;
77722;SDS011;67811;42.656;23.394;2023-06-10T03:14:19;14.52;;;8.35;;
77722;SDS011;67811;42.656;23.394;2023-06-10T03:16:45;16.88;;;7.93;;
77722;SDS011;67811;42.656;23.394;2023-06-10T03:19:10;12.52;;;7.32;;
77722;SDS011;67811;42.656;23.394;2023-06-10T03:21:35;13.73;;;7.82;;
77722;SDS011;67811;42.656;23.394;2023-06-10T03:24:01;12.88;;;8.27;;
77722;SDS011;67811;42.656;23.394;2023-06-10T03:26:26;11.90;;;6.90;;
77722;SDS011;67811;42.656;23.394;2023-06-10T03:28:52;12.45;;;7.53;;
77722;SDS011;67811;42.656;23.394;2023-06-10T03:31:17;11.70;;;8.00;;
77722;SDS011;67811;42.656;23.394;2023-06-10T03:33:42;14.05;;;8.35;;
77722;SDS011;67811;42.656;23.394;2023-06-10T03:36:07;17.52;;;8.63;;
77722;SDS011;67811;42.656;23.394;2023-06-10T03:38:33;15.90;;;9.60;;
77722;SDS011;67811;42.656;23.394;2023-06-10T03:40:58;13.90;;;8.50;;
77722;SDS011;67811;42.656;23.394;2023-06-10T03:43:23;14.13;;;8.75;;
77722;SDS011;67811;42.656;23.394;2023-06-10T03:45:48;12.23;;;8.23;;
77722;SDS011;67811;42.656;23.394;2023-06-10T03:48:14;16.83;;;8.73;;
77722;SDS011;67811;42.656;23.394;2023-06-10T03:50:39;21.55;;;10.32;;
77722;SDS011;67811;42.656;23.394;2023-06-10T03:53:04;26.63;;;13.25;;
77722;SDS011;67811;42.656;23.394;2023-06-10T03:55:29;20.60;;;11.20;;
77722;SDS011;67811;42.656;23.394;2023-06-10T03:57:55;17.67;;;11.18;;
77722;SDS011;67811;42.656;23.394;2023-06-10T04:00:20;22.77;;;11.38;;
77722;SDS011;67811;42.656;23.394;2023-06-10T04:02:45;18.92;;;11.88;;
77722;SDS011;67811;42.656;23.394;2023-06-10T04:05:14;17.45;;;10.57;;
77722;SDS011;67811;42.656;23.394;2023-06-10T04:07:41;21.95;;;11.90;;
77722;SDS011;67811;42.656;23.394;2023-06-10T04:10:06;20.60;;;12.02;;
77722;SDS011;67811;42.656;23.394;2023-06-10T04:12:32;19.65;;;10.38;;
77722;SDS011;67811;42.656;23.394;2023-06-10T04:14:57;24.48;;;12.35;;
77722;SDS011;67811;42.656;23.394;2023-06-10T04:17:23;26.92;;;13.90;;
77722;SDS011;67811;42.656;23.394;2023-06-10T04:19:48;32.72;;;15.55;;
77722;SDS011;67811;42.656;23.394;2023-06-10T04:22:13;24.42;;;13.13;;
77722;SDS011;67811;42.656;23.394;2023-06-10T04:24:38;24.40;;;13.25;;
77722;SDS011;67811;42.656;23.394;2023-06-10T04:27:04;25.92;;;13.80;;
77722;SDS011;67811;42.656;23.394;2023-06-10T04:29:29;24.15;;;13.18;;
77722;SDS011;67811;42.656;23.394;2023-06-10T04:31:55;22.63;;;13.15;;
77722;SDS011;67811;42.656;23.394;2023-06-10T04:34:20;18.30;;;11.20;;
77722;SDS011;67811;42.656;23.394;2023-06-10T04:36:45;19.58;;;11.63;;
77722;SDS011;67811;42.656;23.394;2023-06-10T04:39:10;16.38;;;9.43;;
77722;SDS011;67811;42.656;23.394;2023-06-10T04:41:36;19.27;;;9.88;;
77722;SDS011;67811;42.656;23.394;2023-06-10T04:44:01;16.25;;;10.20;;
77722;SDS011;67811;42.656;23.394;2023-06-10T04:46:26;17.67;;;10.00;;
77722;SDS011;67811;42.656;23.394;2023-06-10T04:48:51;14.93;;;10.10;;
77722;SDS011;67811;42.656;23.394;2023-06-10T04:51:17;16.20;;;8.82;;
77722;SDS011;67811;42.656;23.394;2023-06-10T04:53:42;17.50;;;10.68;;
77722;SDS011;67811;42.656;23.394;2023-06-10T04:56:07;21.98;;;10.98;;
77722;SDS011;67811;42.656;23.394;2023-06-10T04:58:33;21.20;;;10.45;;
77722;SDS011;67811;42.656;23.394;2023-06-10T05:00:58;19.75;;;10.50;;
77722;SDS011;67811;42.656;23.394;2023-06-10T05:03:24;21.27;;;11.23;;
77722;SDS011;67811;42.656;23.394;2023-06-10T05:05:49;18.27;;;10.45;;
77722;SDS011;67811;42.656;23.394;2023-06-10T05:08:14;17.70;;;10.38;;
77722;SDS011;67811;42.656;23.394;2023-06-10T05:10:39;16.88;;;9.60;;
77722;SDS011;67811;42.656;23.394;2023-06-10T05:13:05;20.42;;;11.23;;
77722;SDS011;67811;42.656;23.394;2023-06-10T05:15:30;18.65;;;10.13;;
77722;SDS011;67811;42.656;23.394;2023-06-10T05:17:56;21.38;;;11.93;;
77722;SDS011;67811;42.656;23.394;2023-06-10T05:20:21;17.27;;;10.27;;
77722;SDS011;67811;42.656;23.394;2023-06-10T05:22:47;15.63;;;10.50;;
77722;SDS011;67811;42.656;23.394;2023-06-10T05:25:12;17.40;;;10.25;;
77722;SDS011;67811;42.656;23.394;2023-06-10T05:27:37;18.15;;;10.75;;
77722;SDS011;67811;42.656;23.394;2023-06-10T05:30:03;24.58;;;11.02;;
77722;SDS011;67811;42.656;23.394;2023-06-10T05:32:28;18.27;;;10.25;;
77722;SDS011;67811;42.656;23.394;2023-06-10T05:34:53;22.75;;;11.02;;
77722;SDS011;67811;42.656;23.394;2023-06-10T05:37:19;19.70;;;11.63;;
77722;SDS011;67811;42.656;23.394;2023-06-10T05:39:44;15.45;;;10.85;;
77722;SDS011;67811;42.656;23.394;2023-06-10T05:42:09;18.92;;;11.07;;
77722;SDS011;67811;42.656;23.394;2023-06-10T05:44:35;20.35;;;10.20;;
77722;SDS011;67811;42.656;23.394;2023-06-10T05:47:00;18.17;;;10.10;;
77722;SDS011;67811;42.656;23.394;2023-06-10T05:49:25;15.50;;;9.68;;
77722;SDS011;67811;42.656;23.394;2023-06-10T05:51:51;14.77;;;10.30;;
77722;SDS011;67811;42.656;23.394;2023-06-10T05:54:16;15.93;;;10.23;;
77722;SDS011;67811;42.656;23.394;2023-06-10T05:56:41;19.23;;;10.65;;
77722;SDS011;67811;42.656;23.394;2023-06-10T05:59:06;19.08;;;10.00;;
77722;SDS011;67811;42.656;23.394;2023-06-10T06:01:32;18.80;;;11.05;;
77722;SDS011;67811;42.656;23.394;2023-06-10T06:03:57;21.70;;;12.32;;
77722;SDS011;67811;42.656;23.394;2023-06-10T06:06:22;19.88;;;10.77;;
77722;SDS011;67811;42.656;23.394;2023-06-10T06:08:47;19.38;;;12.18;;
77722;SDS011;67811;42.656;23.394;2023-06-10T06:11:13;19.20;;;11.82;;
77722;SDS011;67811;42.656;23.394;2023-06-10T06:13:38;25.75;;;13.93;;
77722;SDS011;67811;42.656;23.394;2023-06-10T06:16:03;28.23;;;14.00;;
77722;SDS011;67811;42.656;23.394;2023-06-10T06:18:28;21.75;;;12.63;;
77722;SDS011;67811;42.656;23.394;2023-06-10T06:20:54;26.85;;;13.23;;
77722;SDS011;67811;42.656;23.394;2023-06-10T06:23:19;20.98;;;11.98;;
77722;SDS011;67811;42.656;23.394;2023-06-10T06:25:44;25.38;;;12.20;;
77722;SDS011;67811;42.656;23.394;2023-06-10T06:28:10;19.65;;;12.50;;
77722;SDS011;67811;42.656;23.394;2023-06-10T06:30:35;21.08;;;13.23;;
77722;SDS011;67811;42.656;23.394;2023-06-10T06:33:01;20.40;;;12.15;;
77722;SDS011;67811;42.656;23.394;2023-06-10T06:35:27;21.77;;;12.77;;
77722;SDS011;67811;42.656;23.394;2023-06-10T06:37:52;27.67;;;13.82;;
77722;SDS011;67811;42.656;23.394;2023-06-10T06:40:17;21.63;;;12.73;;
77722;SDS011;67811;42.656;23.394;2023-06-10T06:42:42;30.10;;;12.68;;
77722;SDS011;67811;42.656;23.394;2023-06-10T06:45:08;23.55;;;12.02;;
77722;SDS011;67811;42.656;23.394;2023-06-10T06:47:34;23.25;;;12.05;;
77722;SDS011;67811;42.656;23.394;2023-06-10T06:49:59;18.05;;;11.02;;
77722;SDS011;67811;42.656;23.394;2023-06-10T06:52:24;24.33;;;12.73;;
77722;SDS011;67811;42.656;23.394;2023-06-10T06:54:50;25.88;;;12.30;;
77722;SDS011;67811;42.656;23.394;2023-06-10T06:57:15;21.10;;;12.25;;
77722;SDS011;67811;42.656;23.394;2023-06-10T06:59:40;19.63;;;11.40;;
77722;SDS011;67811;42.656;23.394;2023-06-10T07:02:06;19.88;;;11.18;;
77722;SDS011;67811;42.656;23.394;2023-06-10T07:04:31;20.50;;;11.88;;
77722;SDS011;67811;42.656;23.394;2023-06-10T07:06:56;23.65;;;11.77;;
77722;SDS011;67811;42.656;23.394;2023-06-10T07:09:21;23.00;;;11.63;;
77722;SDS011;67811;42.656;23.394;2023-06-10T07:11:47;17.83;;;9.65;;
77722;SDS011;67811;42.656;23.394;2023-06-10T07:14:12;19.67;;;11.68;;
77722;SDS011;67811;42.656;23.394;2023-06-10T07:16:37;29.20;;;11.02;;
77722;SDS011;67811;42.656;23.394;2023-06-10T07:19:03;17.70;;;10.18;;
77722;SDS011;67811;42.656;23.394;2023-06-10T07:21:29;15.35;;;10.27;;
77722;SDS011;67811;42.656;23.394;2023-06-10T07:23:55;19.67;;;9.52;;
77722;SDS011;67811;42.656;23.394;2023-06-10T07:26:23;15.98;;;7.28;;
77722;SDS011;67811;42.656;23.394;2023-06-10T07:28:48;17.98;;;8.60;;
77722;SDS011;67811;42.656;23.394;2023-06-10T07:31:13;13.45;;;8.52;;
77722;SDS011;67811;42.656;23.394;2023-06-10T07:33:39;14.18;;;8.40;;
77722;SDS011;67811;42.656;23.394;2023-06-10T07:36:04;13.30;;;7.68;;
77722;SDS011;67811;42.656;23.394;2023-06-10T07:38:30;15.57;;;8.38;;
77722;SDS011;67811;42.656;23.394;2023-06-10T07:40:56;14.85;;;7.78;;
77722;SDS011;67811;42.656;23.394;2023-06-10T07:43:21;15.75;;;9.52;;
77722;SDS011;67811;42.656;23.394;2023-06-10T07:45:46;13.05;;;7.72;;
77722;SDS011;67811;42.656;23.394;2023-06-10T07:48:11;11.23;;;7.60;;
77722;SDS011;67811;42.656;23.394;2023-06-10T07:50:37;10.65;;;6.22;;
77722;SDS011;67811;42.656;23.394;2023-06-10T07:53:02;13.20;;;6.38;;
77722;SDS011;67811;42.656;23.394;2023-06-10T07:55:27;9.85;;;5.07;;
77722;SDS011;67811;42.656;23.394;2023-06-10T07:57:53;11.77;;;6.28;;
77722;SDS011;67811;42.656;23.394;2023-06-10T08:00:19;9.60;;;5.70;;
77722;SDS011;67811;42.656;23.394;2023-06-10T08:02:45;11.25;;;5.07;;
77722;SDS011;67811;42.656;23.394;2023-06-10T08:05:10;11.93;;;5.38;;
77722;SDS011;67811;42.656;23.394;2023-06-10T08:07:36;9.90;;;5.60;;
77722;SDS011;67811;42.656;23.394;2023-06-10T08:10:01;11.00;;;5.70;;
77722;SDS011;67811;42.656;23.394;2023-06-10T08:12:27;8.00;;;4.72;;
77722;SDS011;67811;42.656;23.394;2023-06-10T08:14:52;9.27;;;5.72;;
77722;SDS011;67811;42.656;23.394;2023-06-10T08:17:17;7.28;;;4.35;;
77722;SDS011;67811;42.656;23.394;2023-06-10T08:19:43;12.38;;;4.60;;
77722;SDS011;67811;42.656;23.394;2023-06-10T08:22:08;6.70;;;3.88;;
77722;SDS011;67811;42.656;23.394;2023-06-10T08:24:33;4.88;;;3.38;;
77722;SDS011;67811;42.656;23.394;2023-06-10T08:26:58;5.50;;;2.88;;
77722;SDS011;67811;42.656;23.394;2023-06-10T08:29:24;5.65;;;3.58;;
77722;SDS011;67811;42.656;23.394;2023-06-10T08:31:50;9.07;;;4.13;;
77722;SDS011;67811;42.656;23.394;2023-06-10T08:34:15;6.93;;;3.50;;
77722;SDS011;67811;42.656;23.394;2023-06-10T08:36:41;5.80;;;4.20;;
77722;SDS011;67811;42.656;23.394;2023-06-10T08:39:06;4.03;;;3.17;;
77722;SDS011;67811;42.656;23.394;2023-06-10T08:41:33;6.88;;;3.65;;
77722;SDS011;67811;42.656;23.394;2023-06-10T08:44:08;5.78;;;3.97;;
77722;SDS011;67811;42.656;23.394;2023-06-10T08:46:37;7.18;;;3.60;;
77722;SDS011;67811;42.656;23.394;2023-06-10T08:49:05;6.10;;;3.03;;
77722;SDS011;67811;42.656;23.394;2023-06-10T08:51:31;9.13;;;3.60;;
77722;SDS011;67811;42.656;23.394;2023-06-10T08:54:01;8.90;;;3.70;;
77722;SDS011;67811;42.656;23.394;2023-06-10T08:56:29;6.03;;;3.72;;
77722;SDS011;67811;42.656;23.394;2023-06-10T08:58:56;6.35;;;3.97;;
77722;SDS011;67811;42.656;23.394;2023-06-10T09:01:23;7.53;;;3.63;;
77722;SDS011;67811;42.656;23.394;2023-06-10T09:03:50;5.10;;;3.28;;
77722;SDS011;67811;42.656;23.394;2023-06-10T09:06:16;4.85;;;3.35;;
77722;SDS011;67811;42.656;23.394;2023-06-10T09:08:42;8.95;;;3.42;;
77722;SDS011;67811;42.656;23.394;2023-06-10T09:11:08;5.57;;;3.13;;
77722;SDS011;67811;42.656;23.394;2023-06-10T09:13:33;5.35;;;2.75;;
77722;SDS011;67811;42.656;23.394;2023-06-10T09:15:59;5.50;;;2.63;;
77722;SDS011;67811;42.656;23.394;2023-06-10T09:18:24;5.13;;;2.88;;
77722;SDS011;67811;42.656;23.394;2023-06-10T09:20:49;13.30;;;3.25;;
77722;SDS011;67811;42.656;23.394;2023-06-10T09:23:15;11.85;;;3.25;;
77722;SDS011;67811;42.656;23.394;2023-06-10T09:25:40;4.15;;;2.72;;
77722;SDS011;67811;42.656;23.394;2023-06-10T09:28:12;3.70;;;2.33;;
77722;SDS011;67811;42.656;23.394;2023-06-10T09:30:38;6.03;;;3.22;;
77722;SDS011;67811;42.656;23.394;2023-06-10T09:33:09;4.47;;;2.95;;
77722;SDS011;67811;42.656;23.394;2023-06-10T09:35:35;6.68;;;3.35;;
77722;SDS011;67811;42.656;23.394;2023-06-10T09:38:01;6.60;;;3.45;;
77722;SDS011;67811;42.656;23.394;2023-06-10T09:40:27;6.57;;;3.33;;
77722;SDS011;67811;42.656;23.394;2023-06-10T09:42:56;6.80;;;3.67;;
77722;SDS011;67811;42.656;23.394;2023-06-10T09:45:23;8.25;;;4.03;;
77722;SDS011;67811;42.656;23.394;2023-06-10T09:47:52;8.20;;;3.42;;
77722;SDS011;67811;42.656;23.394;2023-06-10T09:50:18;7.95;;;3.63;;
77722;SDS011;67811;42.656;23.394;2023-06-10T09:52:45;15.00;;;7.38;;
77722;SDS011;67811;42.656;23.394;2023-06-10T09:57:36;7.87;;;3.73;;
77722;SDS011;67811;42.656;23.394;2023-06-10T10:00:11;5.40;;;3.13;;
77722;SDS011;67811;42.656;23.394;2023-06-10T10:02:47;9.02;;;3.13;;
77722;SDS011;67811;42.656;23.394;2023-06-10T10:05:14;7.07;;;3.67;;
77722;SDS011;67811;42.656;23.394;2023-06-10T10:07:40;11.15;;;3.95;;
77722;SDS011;67811;42.656;23.394;2023-06-10T10:10:06;7.47;;;3.47;;
77722;SDS011;67811;42.656;23.394;2023-06-10T10:12:31;5.85;;;3.35;;
77722;SDS011;67811;42.656;23.394;2023-06-10T10:14:58;4.57;;;2.92;;
77722;SDS011;67811;42.656;23.394;2023-06-10T10:17:24;3.72;;;2.67;;
77722;SDS011;67811;42.656;23.394;2023-06-10T10:19:53;6.90;;;3.13;;
77722;SDS011;67811;42.656;23.394;2023-06-10T10:24:52;6.05;;;2.60;;
77722;SDS011;67811;42.656;23.394;2023-06-10T10:27:21;7.20;;;3.20;;
77722;SDS011;67811;42.656;23.394;2023-06-10T10:29:52;4.70;;;2.78;;
77722;SDS011;67811;42.656;23.394;2023-06-10T10:32:20;4.40;;;3.10;;
77722;SDS011;67811;42.656;23.394;2023-06-10T10:35:12;7.32;;;2.88;;
77722;SDS011;67811;42.656;23.394;2023-06-10T10:37:42;4.85;;;3.22;;
77722;SDS011;67811;42.656;23.394;2023-06-10T10:40:08;4.22;;;2.97;;
77722;SDS011;67811;42.656;23.394;2023-06-10T10:42:34;11.85;;;3.65;;
77722;SDS011;67811;42.656;23.394;2023-06-10T10:45:00;7.65;;;3.60;;
77722;SDS011;67811;42.656;23.394;2023-06-10T10:47:27;5.78;;;3.35;;
77722;SDS011;67811;42.656;23.394;2023-06-10T10:49:52;6.05;;;3.75;;
77722;SDS011;67811;42.656;23.394;2023-06-10T10:52:18;6.50;;;3.88;;
77722;SDS011;67811;42.656;23.394;2023-06-10T10:54:44;10.10;;;3.30;;
77722;SDS011;67811;42.656;23.394;2023-06-10T10:57:17;4.70;;;2.92;;
77722;SDS011;67811;42.656;23.394;2023-06-10T10:59:45;7.72;;;3.53;;
77722;SDS011;67811;42.656;23.394;2023-06-10T11:02:31;7.60;;;3.17;;
77722;SDS011;67811;42.656;23.394;2023-06-10T11:04:57;5.63;;;3.65;;
77722;SDS011;67811;42.656;23.394;2023-06-10T11:07:24;6.15;;;3.30;;
77722;SDS011;67811;42.656;23.394;2023-06-10T11:09:59;5.47;;;3.30;;
77722;SDS011;67811;42.656;23.394;2023-06-10T11:12:33;6.78;;;3.15;;
77722;SDS011;67811;42.656;23.394;2023-06-10T11:15:25;7.28;;;3.63;;
77722;SDS011;67811;42.656;23.394;2023-06-10T11:28:34;7.38;;;3.38;;
77722;SDS011;67811;42.656;23.394;2023-06-10T11:30:59;8.38;;;3.00;;
77722;SDS011;67811;42.656;23.394;2023-06-10T11:33:24;3.45;;;2.55;;
77722;SDS011;67811;42.656;23.394;2023-06-10T11:35:50;4.88;;;3.55;;
77722;SDS011;67811;42.656;23.394;2023-06-10T11:38:15;4.25;;;3.10;;
77722;SDS011;67811;42.656;23.394;2023-06-10T11:40:45;4.82;;;3.42;;
77722;SDS011;67811;42.656;23.394;2023-06-10T11:43:13;6.32;;;3.08;;
77722;SDS011;67811;42.656;23.394;2023-06-10T11:45:40;7.55;;;3.97;;
77722;SDS011;67811;42.656;23.394;2023-06-10T11:48:06;5.45;;;3.70;;
77722;SDS011;67811;42.656;23.394;2023-06-10T11:50:32;4.22;;;3.05;;
77722;SDS011;67811;42.656;23.394;2023-06-10T11:52:58;4.18;;;2.97;;
77722;SDS011;67811;42.656;23.394;2023-06-10T11:55:25;8.52;;;2.80;;
77722;SDS011;67811;42.656;23.394;2023-06-10T11:58:02;4.57;;;3.30;;
77722;SDS011;67811;42.656;23.394;2023-06-10T12:00:27;5.32;;;3.40;;
77722;SDS011;67811;42.656;23.394;2023-06-10T12:02:57;6.57;;;3.13;;
77722;SDS011;67811;42.656;23.394;2023-06-10T12:05:22;4.13;;;2.90;;
77722;SDS011;67811;42.656;23.394;2023-06-10T12:07:47;4.45;;;3.35;;
77722;SDS011;67811;42.656;23.394;2023-06-10T12:10:13;4.95;;;3.13;;
77722;SDS011;67811;42.656;23.394;2023-06-10T12:12:38;6.88;;;3.38;;
77722;SDS011;67811;42.656;23.394;2023-06-10T12:15:03;6.05;;;3.13;;
77722;SDS011;67811;42.656;23.394;2023-06-10T12:19:58;6.63;;;2.88;;
77722;SDS011;67811;42.656;23.394;2023-06-10T12:22:23;6.90;;;3.20;;
77722;SDS011;67811;42.656;23.394;2023-06-10T12:24:58;4.80;;;2.85;;
77722;SDS011;67811;42.656;23.394;2023-06-10T12:27:25;6.18;;;2.67;;
77722;SDS011;67811;42.656;23.394;2023-06-10T12:29:51;7.65;;;3.22;;
77722;SDS011;67811;42.656;23.394;2023-06-10T12:32:17;4.80;;;2.92;;
77722;SDS011;67811;42.656;23.394;2023-06-10T12:34:42;4.53;;;3.10;;
77722;SDS011;67811;42.656;23.394;2023-06-10T12:37:10;4.10;;;2.67;;
77722;SDS011;67811;42.656;23.394;2023-06-10T12:39:37;5.45;;;3.10;;
77722;SDS011;67811;42.656;23.394;2023-06-10T12:42:02;10.45;;;2.70;;
77722;SDS011;67811;42.656;23.394;2023-06-10T12:44:28;7.18;;;2.67;;
77722;SDS011;67811;42.656;23.394;2023-06-10T12:46:54;10.70;;;3.63;;
77722;SDS011;67811;42.656;23.394;2023-06-10T12:49:20;7.00;;;2.92;;
77722;SDS011;67811;42.656;23.394;2023-06-10T12:51:46;4.65;;;3.05;;
77722;SDS011;67811;42.656;23.394;2023-06-10T12:54:12;5.28;;;3.10;;
77722;SDS011;67811;42.656;23.394;2023-06-10T12:56:37;4.88;;;2.95;;
77722;SDS011;67811;42.656;23.394;2023-06-10T12:59:02;5.57;;;2.80;;
77722;SDS011;67811;42.656;23.394;2023-06-10T13:01:28;8.85;;;3.03;;
77722;SDS011;67811;42.656;23.394;2023-06-10T13:03:53;5.25;;;2.85;;
77722;SDS011;67811;42.656;23.394;2023-06-10T13:06:18;5.35;;;3.53;;
77722;SDS011;67811;42.656;23.394;2023-06-10T13:08:43;6.10;;;2.78;;
77722;SDS011;67811;42.656;23.394;2023-06-10T13:11:09;5.10;;;2.72;;
77722;SDS011;67811;42.656;23.394;2023-06-10T13:13:36;5.97;;;3.30;;
77722;SDS011;67811;42.656;23.394;2023-06-10T13:16:02;5.68;;;3.35;;
77722;SDS011;67811;42.656;23.394;2023-06-10T13:18:27;5.15;;;2.90;;
77722;SDS011;67811;42.656;23.394;2023-06-10T13:20:52;5.18;;;3.08;;
77722;SDS011;67811;42.656;23.394;2023-06-10T13:23:17;5.25;;;3.45;;
77722;SDS011;67811;42.656;23.394;2023-06-10T13:25:43;8.15;;;3.45;;
77722;SDS011;67811;42.656;23.394;2023-06-10T13:28:08;8.30;;;3.63;;
77722;SDS011;67811;42.656;23.394;2023-06-10T13:30:34;4.43;;;3.22;;
77722;SDS011;67811;42.656;23.394;2023-06-10T13:32:59;7.05;;;2.92;;
77722;SDS011;67811;42.656;23.394;2023-06-10T13:35:24;3.55;;;2.67;;
77722;SDS011;67811;42.656;23.394;2023-06-10T13:37:49;6.35;;;3.28;;
77722;SDS011;67811;42.656;23.394;2023-06-10T13:40:15;7.85;;;3.47;;
77722;SDS011;67811;42.656;23.394;2023-06-10T13:42:40;9.85;;;3.42;;
77722;SDS011;67811;42.656;23.394;2023-06-10T13:45:05;13.45;;;3.90;;
77722;SDS011;67811;42.656;23.394;2023-06-10T13:47:31;8.70;;;4.00;;
77722;SDS011;67811;42.656;23.394;2023-06-10T13:49:56;7.80;;;3.88;;
77722;SDS011;67811;42.656;23.394;2023-06-10T13:52:22;8.63;;;3.83;;
77722;SDS011;67811;42.656;23.394;2023-06-10T13:54:47;5.10;;;3.28;;
77722;SDS011;67811;42.656;23.394;2023-06-10T13:57:12;5.90;;;3.30;;
77722;SDS011;67811;42.656;23.394;2023-06-10T13:59:37;11.90;;;4.55;;
77722;SDS011;67811;42.656;23.394;2023-06-10T14:02:03;10.38;;;3.72;;
77722;SDS011;67811;42.656;23.394;2023-06-10T14:04:28;5.65;;;3.50;;
77722;SDS011;67811;42.656;23.394;2023-06-10T14:06:54;8.75;;;4.70;;
77722;SDS011;67811;42.656;23.394;2023-06-10T14:09:19;9.02;;;3.60;;
77722;SDS011;67811;42.656;23.394;2023-06-10T14:11:44;7.70;;;3.60;;
77722;SDS011;67811;42.656;23.394;2023-06-10T14:14:10;5.72;;;4.22;;
77722;SDS011;67811;42.656;23.394;2023-06-10T14:16:35;9.80;;;3.25;;
77722;SDS011;67811;42.656;23.394;2023-06-10T14:19:00;6.70;;;3.97;;
77722;SDS011;67811;42.656;23.394;2023-06-10T14:21:26;6.03;;;4.18;;
77722;SDS011;67811;42.656;23.394;2023-06-10T14:23:51;7.00;;;3.95;;
77722;SDS011;67811;42.656;23.394;2023-06-10T14:26:16;7.45;;;4.00;;
77722;SDS011;67811;42.656;23.394;2023-06-10T14:28:42;7.63;;;3.72;;
77722;SDS011;67811;42.656;23.394;2023-06-10T14:31:07;6.63;;;3.97;;
77722;SDS011;67811;42.656;23.394;2023-06-10T14:33:32;8.40;;;3.67;;
77722;SDS011;67811;42.656;23.394;2023-06-10T14:35:57;5.65;;;4.18;;
77722;SDS011;67811;42.656;23.394;2023-06-10T14:38:23;9.70;;;3.85;;